createdAt,value
2018-10-18T00:00:18.188Z,88.30
2018-10-18T00:00:56.205Z,87.50
2018-10-18T00:01:34.310Z,87.50
2018-10-18T00:02:12.590Z,87.50
2018-10-18T00:02:50.593Z,87.40
2018-10-18T00:03:30.013Z,87.50
2018-10-18T00:04:08.072Z,87.40
2018-10-18T00:04:46.576Z,87.30
2018-10-18T00:05:25.144Z,87.30
2018-10-18T00:06:03.353Z,87.20
2018-10-18T00:06:41.367Z,87.20
2018-10-18T00:07:19.304Z,87.10
2018-10-18T00:07:57.310Z,87.90
2018-10-18T00:08:35.514Z,87.10
2018-10-18T00:09:14.748Z,87.10
2018-10-18T00:09:52.628Z,87.10
2018-10-18T00:10:30.481Z,87.20
2018-10-18T00:11:08.829Z,87.30
2018-10-18T00:11:47.009Z,87.30
2018-10-18T00:12:25.025Z,87.30
2018-10-18T00:13:02.966Z,87.20
2018-10-18T00:13:40.888Z,87.20
2018-10-18T00:14:18.825Z,87.20
2018-10-18T00:14:56.864Z,87.30
2018-10-18T00:15:35.383Z,87.20
2018-10-18T00:16:13.315Z,87.30
2018-10-18T00:16:51.170Z,87.40
2018-10-18T00:17:33.684Z,87.30
2018-10-18T00:18:12.049Z,87.20
2018-10-18T00:18:50.756Z,87.20
2018-10-18T00:19:29.009Z,87.20
2018-10-18T00:20:07.858Z,87.30
2018-10-18T00:20:46.904Z,87.20
2018-10-18T00:21:25.225Z,87.40
2018-10-18T00:22:04.409Z,87.40
2018-10-18T00:22:42.776Z,87.40
2018-10-18T00:23:21.979Z,87.40
2018-10-18T00:24:00.256Z,87.60
2018-10-18T00:24:38.341Z,88.30
2018-10-18T00:25:17.135Z,88.50
2018-10-18T00:25:55.599Z,88.10
2018-10-18T00:26:34.224Z,88.20
2018-10-18T00:27:12.431Z,88.30
2018-10-18T00:27:50.633Z,88.10
2018-10-18T00:28:28.984Z,88.10
2018-10-18T00:29:07.172Z,87.90
2018-10-18T00:29:45.769Z,88.10
2018-10-18T00:30:24.237Z,88.10
2018-10-18T00:31:02.794Z,88.10
2018-10-18T00:31:40.876Z,88.00
2018-10-18T00:32:18.776Z,87.90
2018-10-18T00:32:57.426Z,88.00
2018-10-18T00:33:35.603Z,88.10
2018-10-18T00:34:14.789Z,88.00
2018-10-18T00:34:53.074Z,88.20
2018-10-18T00:35:32.125Z,88.10
2018-10-18T00:36:11.474Z,88.00
2018-10-18T00:36:49.751Z,88.00
2018-10-18T00:37:27.918Z,87.80
2018-10-18T00:38:06.426Z,87.50
2018-10-18T00:38:45.100Z,87.40
2018-10-18T00:39:23.521Z,87.50
2018-10-18T00:40:02.091Z,87.40
2018-10-18T00:40:40.724Z,87.20
2018-10-18T00:41:19.807Z,87.10
2018-10-18T00:41:57.722Z,87.20
2018-10-18T00:42:36.081Z,87.20
2018-10-18T00:43:14.390Z,87.10
2018-10-18T00:43:52.892Z,87.00
2018-10-18T00:44:31.933Z,87.00
2018-10-18T00:45:12.024Z,87.00
2018-10-18T00:45:51.300Z,87.10
2018-10-18T00:46:29.397Z,87.10
2018-10-18T00:47:07.448Z,87.10
2018-10-18T00:47:45.989Z,87.30
2018-10-18T00:48:23.821Z,87.30
2018-10-18T00:49:03.376Z,87.30
2018-10-18T00:49:43.239Z,87.50
2018-10-18T00:50:21.406Z,87.40
2018-10-18T00:50:59.577Z,87.40
2018-10-18T00:51:37.921Z,87.50
2018-10-18T00:52:16.535Z,87.40
2018-10-18T00:52:54.979Z,87.30
2018-10-18T00:53:33.857Z,87.30
2018-10-18T00:54:13.167Z,87.40
2018-10-18T00:54:51.386Z,87.30
2018-10-18T00:55:29.961Z,87.30
2018-10-18T00:56:09.405Z,87.20
2018-10-18T00:56:48.878Z,87.30
2018-10-18T00:57:26.879Z,87.30
2018-10-18T00:58:04.872Z,87.30
2018-10-18T00:58:42.799Z,87.20
2018-10-18T00:59:24.462Z,87.30
2018-10-18T01:00:02.691Z,87.30
2018-10-18T01:00:41.133Z,88.20
2018-10-18T01:01:19.424Z,87.40
2018-10-18T01:01:57.672Z,87.50
2018-10-18T01:02:35.814Z,87.50
2018-10-18T01:03:14.202Z,87.50
2018-10-18T01:03:53.612Z,87.60
2018-10-18T01:04:32.032Z,87.80
2018-10-18T01:05:10.545Z,87.80
2018-10-18T01:05:48.876Z,87.80
2018-10-18T01:06:26.781Z,87.80
2018-10-18T01:07:04.745Z,87.80
2018-10-18T01:07:43.319Z,87.70
2018-10-18T01:08:22.335Z,87.70
2018-10-18T01:09:00.642Z,87.70
2018-10-18T01:09:40.167Z,88.20
2018-10-18T01:10:19.680Z,87.70
2018-10-18T01:10:57.561Z,87.80
2018-10-18T01:11:35.469Z,87.80
2018-10-18T01:15:15.393Z,88.80
2018-10-18T01:15:53.771Z,87.80
2018-10-18T01:16:32.636Z,87.80
2018-10-18T01:17:11.928Z,87.80
2018-10-18T01:17:50.995Z,88.00
2018-10-18T01:18:28.972Z,88.00
2018-10-18T01:19:08.300Z,88.00
2018-10-18T01:19:47.568Z,87.90
2018-10-18T01:20:25.945Z,88.00
2018-10-18T01:21:04.356Z,88.10
2018-10-18T01:21:42.591Z,88.10
2018-10-18T01:22:21.687Z,88.10
2018-10-18T01:22:59.752Z,88.10
2018-10-18T01:23:38.360Z,88.00
2018-10-18T01:24:17.004Z,87.70
2018-10-18T01:24:55.392Z,87.70
2018-10-18T01:25:34.078Z,87.60
2018-10-18T01:26:12.430Z,87.60
2018-10-18T01:26:54.035Z,87.60
2018-10-18T01:27:31.934Z,87.50
2018-10-18T01:28:09.860Z,87.60
2018-10-18T01:28:47.739Z,87.60
2018-10-18T01:29:25.768Z,87.60
2018-10-18T01:30:03.743Z,87.60
2018-10-18T01:30:42.766Z,87.60
2018-10-18T01:31:20.758Z,87.60
2018-10-18T01:31:59.411Z,87.50
2018-10-18T01:32:37.596Z,87.30
2018-10-18T01:33:15.507Z,87.20
2018-10-18T01:33:53.971Z,87.10
2018-10-18T01:34:32.785Z,87.10
2018-10-18T01:35:11.442Z,87.10
2018-10-18T01:35:49.857Z,87.10
2018-10-18T01:36:28.693Z,87.20
2018-10-18T01:37:06.647Z,87.30
2018-10-18T01:37:45.279Z,87.40
2018-10-18T01:38:24.315Z,87.60
2018-10-18T01:39:20.820Z,87.70
2018-10-18T01:39:59.234Z,87.70
2018-10-18T01:40:37.415Z,87.60
2018-10-18T01:41:15.738Z,87.80
2018-10-18T01:41:53.707Z,87.80
2018-10-18T01:42:31.596Z,87.70
2018-10-18T01:43:09.845Z,87.80
2018-10-18T01:43:48.282Z,87.80
2018-10-18T01:44:26.316Z,87.80
2018-10-18T01:45:04.303Z,87.90
2018-10-18T01:45:42.290Z,87.90
2018-10-18T01:46:20.533Z,87.90
2018-10-18T01:46:58.759Z,88.00
2018-10-18T01:47:36.568Z,88.20
2018-10-18T01:48:14.751Z,88.20
2018-10-18T01:48:52.708Z,88.30
2018-10-18T01:49:30.594Z,88.20
2018-10-18T01:50:09.553Z,88.60
2018-10-18T01:50:47.901Z,88.40
2018-10-18T01:51:26.217Z,88.40
2018-10-18T01:52:04.363Z,88.20
2018-10-18T01:52:42.460Z,88.20
2018-10-18T01:53:20.328Z,88.30
2018-10-18T01:53:58.306Z,88.30
2018-10-18T01:54:36.460Z,88.40
2018-10-18T01:55:14.875Z,88.40
2018-10-18T01:55:53.303Z,88.40
2018-10-18T01:56:31.686Z,88.30
2018-10-18T01:57:10.439Z,88.50
2018-10-18T01:57:48.324Z,88.50
2018-10-18T01:58:26.284Z,88.80
2018-10-18T01:59:04.143Z,88.80
2018-10-18T01:59:42.630Z,88.60
2018-10-18T02:00:20.485Z,88.50
2018-10-18T02:00:58.458Z,88.80
2018-10-18T02:01:36.415Z,88.90
2018-10-18T02:02:14.438Z,88.90
2018-10-18T02:02:52.441Z,88.90
2018-10-18T02:03:30.516Z,88.90
2018-10-18T02:04:08.879Z,88.90
2018-10-18T02:04:46.717Z,88.90
2018-10-18T02:05:24.655Z,88.90
2018-10-18T02:06:03.431Z,88.80
2018-10-18T02:06:41.794Z,88.70
2018-10-18T02:07:20.649Z,88.80
2018-10-18T02:07:58.808Z,88.70
2018-10-18T02:08:37.370Z,88.80
2018-10-18T02:09:15.499Z,88.80
2018-10-18T02:09:54.284Z,88.80
2018-10-18T02:10:32.585Z,88.60
2018-10-18T02:11:10.555Z,88.70
2018-10-18T02:11:48.665Z,88.50
2018-10-18T02:12:26.449Z,88.40
2018-10-18T02:13:04.373Z,88.40
2018-10-18T02:13:42.676Z,88.00
2018-10-18T02:14:20.912Z,88.20
2018-10-18T02:14:59.580Z,88.20
2018-10-18T02:15:37.967Z,88.20
2018-10-18T02:16:17.444Z,88.20
2018-10-18T02:16:55.289Z,88.20
2018-10-18T02:17:34.864Z,88.20
2018-10-18T02:18:13.440Z,88.20
2018-10-18T02:18:51.518Z,88.80
2018-10-18T02:19:29.441Z,88.20
2018-10-18T02:20:09.872Z,88.10
2018-10-18T02:20:48.199Z,88.10
2018-10-18T02:21:26.595Z,88.00
2018-10-18T02:22:05.131Z,88.10
2018-10-18T02:22:43.609Z,87.90
2018-10-18T02:23:23.269Z,87.80
2018-10-18T02:24:01.470Z,87.80
2018-10-18T02:24:39.891Z,87.90
2018-10-18T02:25:18.848Z,87.80
2018-10-18T02:25:57.222Z,87.40
2018-10-18T02:26:35.453Z,87.20
2018-10-18T02:27:13.462Z,87.20
2018-10-18T02:27:52.805Z,86.90
2018-10-18T02:28:31.865Z,87.30
2018-10-18T02:29:10.448Z,87.40
2018-10-18T02:29:48.800Z,87.30
2018-10-18T02:30:27.245Z,87.30
2018-10-18T02:31:05.678Z,88.10
2018-10-18T02:31:44.308Z,87.20
2018-10-18T02:32:23.681Z,87.30
2018-10-18T02:33:01.958Z,87.20
2018-10-18T02:33:40.177Z,87.20
2018-10-18T02:34:18.281Z,87.20
2018-10-18T02:34:56.619Z,87.20
2018-10-18T02:35:34.909Z,87.10
2018-10-18T02:36:14.477Z,87.10
2018-10-18T02:36:52.756Z,87.20
2018-10-18T02:37:31.051Z,87.20
2018-10-18T02:38:09.501Z,87.30
2018-10-18T02:38:47.731Z,87.30
2018-10-18T02:39:27.195Z,87.50
2018-10-18T02:40:05.245Z,87.30
2018-10-18T02:40:44.199Z,86.80
2018-10-18T02:41:22.913Z,86.80
2018-10-18T02:42:01.222Z,86.80
2018-10-18T02:42:40.017Z,86.90
2018-10-18T02:43:18.249Z,86.80
2018-10-18T02:43:56.658Z,86.70
2018-10-18T02:44:36.161Z,86.80
2018-10-18T02:45:14.321Z,86.70
2018-10-18T02:45:53.913Z,86.60
2018-10-18T02:46:32.426Z,86.60
2018-10-18T02:47:11.708Z,86.50
2018-10-18T02:47:49.661Z,86.60
2018-10-18T02:48:28.335Z,86.30
2018-10-18T02:49:06.864Z,86.20
2018-10-18T02:49:45.021Z,86.00
2018-10-18T02:50:23.634Z,85.80
2018-10-18T02:51:03.173Z,85.40
2018-10-18T02:51:41.375Z,85.90
2018-10-18T02:52:19.714Z,85.90
2018-10-18T02:52:59.180Z,85.90
2018-10-18T02:53:38.971Z,86.00
2018-10-18T02:54:17.543Z,86.60
2018-10-18T02:54:55.961Z,86.10
2018-10-18T02:55:35.002Z,86.20
2018-10-18T02:56:13.119Z,86.20
2018-10-18T02:56:52.191Z,86.10
2018-10-18T02:57:30.784Z,86.10
2018-10-18T02:58:09.108Z,86.10
2018-10-18T02:58:47.212Z,86.10
2018-10-18T02:59:25.141Z,86.00
2018-10-18T03:00:04.134Z,85.80
2018-10-18T03:00:42.438Z,85.90
2018-10-18T03:01:20.660Z,85.90
2018-10-18T03:01:59.720Z,85.80
2018-10-18T03:02:38.441Z,85.90
2018-10-18T03:03:16.960Z,85.80
2018-10-18T03:03:56.711Z,85.80
2018-10-18T03:04:34.960Z,85.80
2018-10-18T03:05:13.264Z,85.90
2018-10-18T03:05:51.718Z,85.80
2018-10-18T03:06:31.119Z,85.80
2018-10-18T03:07:09.554Z,86.50
2018-10-18T03:07:49.698Z,85.70
2018-10-18T03:08:27.687Z,85.40
2018-10-18T03:09:05.925Z,85.40
2018-10-18T03:09:44.021Z,85.50
2018-10-18T03:10:21.834Z,85.40
2018-10-18T03:10:59.986Z,85.50
2018-10-18T03:11:38.138Z,85.50
2018-10-18T03:12:16.493Z,85.50
2018-10-18T03:12:54.948Z,85.60
2018-10-18T03:13:33.299Z,85.60
2018-10-18T03:14:11.535Z,85.70
2018-10-18T03:14:49.629Z,85.60
2018-10-18T03:15:27.963Z,85.60
2018-10-18T03:16:06.539Z,85.60
2018-10-18T03:16:46.849Z,85.70
2018-10-18T03:17:25.849Z,85.60
2018-10-18T03:18:05.088Z,85.60
2018-10-18T03:18:43.171Z,85.60
2018-10-18T03:19:21.733Z,85.60
2018-10-18T03:20:01.205Z,85.60
2018-10-18T03:20:39.725Z,85.60
2018-10-18T03:21:17.727Z,85.70
2018-10-18T03:21:57.152Z,85.80
2018-10-18T03:22:35.295Z,85.90
2018-10-18T03:23:13.402Z,86.00
2018-10-18T03:23:51.489Z,86.10
2018-10-18T03:24:29.953Z,86.10
2018-10-18T03:25:09.272Z,86.10
2018-10-18T03:25:48.710Z,86.10
2018-10-18T03:26:26.578Z,86.50
2018-10-18T03:27:06.124Z,86.60
2018-10-18T03:27:48.862Z,86.60
2018-10-18T03:28:27.522Z,86.80
2018-10-18T03:29:05.542Z,86.70
2018-10-18T03:29:43.967Z,86.80
2018-10-18T03:30:22.385Z,86.90
2018-10-18T03:31:00.879Z,87.10
2018-10-18T03:31:39.201Z,86.90
2018-10-18T03:32:17.112Z,86.80
2018-10-18T03:32:55.405Z,86.80
2018-10-18T03:33:34.648Z,86.80
2018-10-18T03:34:13.821Z,86.80
2018-10-18T03:34:52.712Z,86.80
2018-10-18T03:35:31.133Z,86.70
2018-10-18T03:36:09.675Z,86.70
2018-10-18T03:36:47.820Z,86.70
2018-10-18T03:37:26.256Z,86.60
2018-10-18T03:38:04.824Z,86.70
2018-10-18T03:38:43.740Z,86.70
2018-10-18T03:39:22.392Z,86.80
2018-10-18T03:40:00.878Z,87.50
2018-10-18T03:40:39.309Z,86.90
2018-10-18T03:41:18.975Z,86.80
2018-10-18T03:41:58.165Z,87.50
2018-10-18T03:42:36.741Z,86.70
2018-10-18T03:43:16.135Z,86.70
2018-10-18T03:43:54.089Z,86.60
2018-10-18T03:44:32.671Z,86.70
2018-10-18T03:45:11.269Z,86.70
2018-10-18T03:45:49.580Z,86.70
2018-10-18T03:46:28.527Z,86.70
2018-10-18T03:47:06.999Z,86.70
2018-10-18T03:47:45.864Z,86.70
2018-10-18T03:48:24.537Z,86.70
2018-10-18T03:49:02.851Z,86.70
2018-10-18T03:49:42.904Z,86.90
2018-10-18T03:50:20.873Z,86.80
2018-10-18T03:51:00.301Z,86.90
2018-10-18T03:51:39.947Z,87.00
2018-10-18T03:52:18.136Z,87.80
2018-10-18T03:52:57.497Z,87.10
2018-10-18T03:53:35.744Z,87.30
2018-10-18T03:54:15.737Z,87.40
2018-10-18T03:54:53.951Z,87.40
2018-10-18T03:55:32.504Z,87.50
2018-10-18T03:56:10.565Z,87.40
2018-10-18T03:56:49.664Z,87.40
2018-10-18T03:57:29.361Z,88.30
2018-10-18T03:58:07.964Z,88.30
2018-10-18T03:58:46.475Z,88.30
2018-10-18T03:59:24.900Z,88.70
2018-10-18T04:00:04.290Z,88.70
2018-10-18T04:00:42.636Z,89.00
2018-10-18T04:01:21.883Z,89.20
2018-10-18T04:02:00.303Z,89.40
2018-10-18T04:02:38.544Z,89.20
2018-10-18T04:03:17.168Z,89.10
2018-10-18T04:03:55.350Z,89.30
2018-10-18T04:04:33.944Z,90.00
2018-10-18T04:05:12.530Z,89.70
2018-10-18T04:05:54.034Z,89.60
2018-10-18T04:06:33.353Z,89.50
2018-10-18T04:07:11.764Z,89.50
2018-10-18T04:07:50.804Z,89.10
2018-10-18T04:08:29.152Z,89.50
2018-10-18T04:09:08.988Z,89.60
2018-10-18T04:09:48.188Z,89.40
2018-10-18T04:10:26.750Z,89.40
2018-10-18T04:11:04.815Z,89.50
2018-10-18T04:11:43.829Z,89.60
2018-10-18T04:12:22.268Z,89.60
2018-10-18T04:13:01.849Z,89.50
2018-10-18T04:13:41.787Z,89.40
2018-10-18T04:14:20.539Z,89.70
2018-10-18T04:14:58.738Z,89.60
2018-10-18T04:15:37.969Z,89.60
2018-10-18T04:16:16.207Z,89.90
2018-10-18T04:16:54.506Z,89.80
2018-10-18T04:17:33.828Z,89.80
2018-10-18T04:18:13.205Z,89.70
2018-10-18T04:18:52.666Z,89.50
2018-10-18T04:19:30.794Z,89.60
2018-10-18T04:20:09.499Z,89.60
2018-10-18T04:20:47.577Z,89.60
2018-10-18T04:21:26.626Z,89.60
2018-10-18T04:22:04.752Z,89.60
2018-10-18T04:22:43.322Z,89.60
2018-10-18T04:23:36.629Z,89.50
2018-10-18T04:24:15.754Z,89.40
2018-10-18T04:24:55.089Z,89.30
2018-10-18T04:25:33.197Z,89.20
2018-10-18T04:26:11.093Z,89.30
2018-10-18T04:26:49.708Z,89.20
2018-10-18T04:27:27.583Z,89.30
2018-10-18T04:28:06.538Z,89.30
2018-10-18T04:28:47.467Z,89.20
2018-10-18T04:29:25.396Z,89.20
2018-10-18T04:30:03.303Z,89.20
2018-10-18T04:30:41.308Z,89.20
2018-10-18T04:31:19.175Z,89.20
2018-10-18T04:31:57.069Z,89.30
2018-10-18T04:32:35.116Z,89.20
2018-10-18T04:33:13.086Z,89.20
2018-10-18T04:33:51.239Z,89.20
2018-10-18T04:34:29.098Z,89.40
2018-10-18T04:35:07.067Z,89.40
2018-10-18T04:35:45.127Z,89.40
2018-10-18T04:36:22.896Z,89.40
2018-10-18T04:37:03.721Z,89.80
2018-10-18T04:37:41.671Z,90.10
2018-10-18T04:38:19.568Z,90.20
2018-10-18T04:38:57.557Z,90.30
2018-10-18T04:39:35.464Z,90.40
2018-10-18T04:40:13.313Z,90.60
2018-10-18T04:40:51.493Z,90.60
2018-10-18T04:41:29.362Z,90.60
2018-10-18T04:42:07.322Z,90.80
2018-10-18T04:42:45.359Z,90.90
2018-10-18T04:43:23.306Z,90.90
2018-10-18T04:44:01.472Z,90.80
2018-10-18T04:44:39.619Z,90.90
2018-10-18T04:45:18.169Z,90.80
2018-10-18T04:45:56.397Z,90.70
2018-10-18T04:46:34.369Z,90.80
2018-10-18T04:47:12.404Z,90.80
2018-10-18T04:47:50.496Z,90.90
2018-10-18T04:48:29.509Z,91.10
2018-10-18T04:49:07.603Z,91.00
2018-10-18T04:49:45.636Z,91.10
2018-10-18T04:50:23.438Z,91.10
2018-10-18T04:51:01.274Z,91.20
2018-10-18T04:51:39.294Z,91.20
2018-10-18T04:52:17.108Z,91.10
2018-10-18T04:52:55.077Z,91.10
2018-10-18T04:53:33.035Z,91.00
2018-10-18T04:54:10.996Z,91.00
2018-10-18T04:54:48.836Z,91.10
2018-10-18T04:55:26.597Z,91.10
2018-10-18T04:56:04.532Z,91.00
2018-10-18T04:56:42.509Z,91.00
2018-10-18T04:57:20.443Z,91.20
2018-10-18T04:57:58.313Z,91.20
2018-10-18T04:58:36.238Z,91.30
2018-10-18T04:59:14.169Z,91.40
2018-10-18T04:59:52.254Z,91.30
2018-10-18T05:00:30.202Z,91.30
2018-10-18T05:01:08.364Z,91.30
2018-10-18T05:01:46.288Z,91.30
2018-10-18T05:02:24.304Z,91.40
2018-10-18T05:03:02.331Z,91.40
2018-10-18T05:03:41.124Z,91.40
2018-10-18T05:04:18.979Z,91.40
2018-10-18T05:05:05.933Z,91.40
2018-10-18T05:05:58.724Z,91.40
2018-10-18T05:06:36.674Z,91.30
2018-10-18T05:07:14.750Z,91.30
2018-10-18T05:07:52.779Z,91.30
2018-10-18T05:08:31.255Z,91.40
2018-10-18T05:09:10.849Z,91.30
2018-10-18T05:09:48.779Z,91.50
2018-10-18T05:10:26.763Z,91.80
2018-10-18T05:11:04.783Z,91.60
2018-10-18T05:11:42.636Z,91.70
2018-10-18T05:12:20.629Z,91.60
2018-10-18T05:12:58.676Z,91.40
2018-10-18T05:13:36.587Z,91.40
2018-10-18T05:14:14.427Z,91.30
2018-10-18T05:14:52.387Z,91.30
2018-10-18T05:15:30.303Z,91.30
2018-10-18T05:16:08.395Z,91.20
2018-10-18T05:16:46.231Z,91.20
2018-10-18T05:17:24.159Z,91.20
2018-10-18T05:18:02.058Z,91.20
2018-10-18T05:18:39.883Z,91.20
2018-10-18T05:19:17.998Z,91.10
2018-10-18T05:19:55.896Z,91.10
2018-10-18T05:20:33.742Z,91.10
2018-10-18T05:21:11.713Z,91.10
2018-10-18T05:21:49.702Z,91.10
2018-10-18T05:22:27.491Z,91.10
2018-10-18T05:23:05.387Z,91.10
2018-10-18T05:23:43.296Z,91.00
2018-10-18T05:24:21.303Z,90.90
2018-10-18T05:24:59.665Z,90.90
2018-10-18T05:25:38.859Z,90.80
2018-10-18T05:26:16.896Z,90.80
2018-10-18T05:26:56.200Z,90.70
2018-10-18T05:27:34.496Z,90.60
2018-10-18T05:28:12.319Z,90.60
2018-10-18T05:28:50.257Z,90.60
2018-10-18T05:29:28.167Z,90.40
2018-10-18T05:30:06.416Z,90.40
2018-10-18T05:30:44.438Z,90.50
2018-10-18T05:31:22.470Z,90.50
2018-10-18T05:32:00.585Z,90.60
2018-10-18T05:32:38.667Z,90.70
2018-10-18T05:33:16.545Z,90.60
2018-10-18T05:33:54.460Z,90.60
2018-10-18T05:34:32.343Z,90.60
2018-10-18T05:35:10.467Z,90.50
2018-10-18T05:35:48.341Z,90.50
2018-10-18T05:36:26.263Z,90.60
2018-10-18T05:37:04.072Z,90.60
2018-10-18T05:37:42.252Z,90.50
2018-10-18T05:38:20.574Z,90.40
2018-10-18T05:38:58.496Z,90.70
2018-10-18T05:39:39.214Z,90.40
2018-10-18T05:40:17.069Z,90.40
2018-10-18T05:40:55.024Z,90.20
2018-10-18T05:41:32.838Z,90.20
2018-10-18T05:42:10.728Z,90.20
2018-10-18T05:42:48.729Z,90.20
2018-10-18T05:43:31.055Z,90.20
2018-10-18T05:44:09.113Z,90.00
2018-10-18T05:44:47.352Z,90.00
2018-10-18T05:45:26.599Z,89.80
2018-10-18T05:46:04.414Z,89.70
2018-10-18T05:46:42.372Z,89.50
2018-10-18T05:47:20.528Z,89.20
2018-10-18T05:47:58.450Z,88.90
2018-10-18T05:48:37.739Z,88.90
2018-10-18T05:49:15.765Z,88.90
2018-10-18T05:49:53.881Z,88.90
2018-10-18T05:50:34.101Z,88.90
2018-10-18T05:51:12.220Z,88.90
2018-10-18T05:51:50.247Z,88.90
2018-10-18T05:52:29.575Z,88.30
2018-10-18T05:53:07.659Z,87.90
2018-10-18T05:53:45.744Z,87.90
2018-10-18T05:54:23.603Z,87.90
2018-10-18T05:55:01.602Z,88.00
2018-10-18T05:55:39.570Z,88.10
2018-10-18T05:56:18.724Z,88.30
2018-10-18T05:56:56.638Z,88.40
2018-10-18T05:57:34.558Z,88.40
2018-10-18T05:58:12.485Z,88.30
2018-10-18T05:58:54.999Z,88.20
2018-10-18T05:59:33.031Z,88.20
2018-10-18T06:00:15.259Z,88.40
2018-10-18T06:00:53.333Z,88.20
2018-10-18T06:01:31.397Z,88.20
2018-10-18T06:02:09.692Z,88.30
2018-10-18T06:02:47.969Z,88.50
2018-10-18T06:03:25.883Z,88.50
2018-10-18T06:04:04.000Z,88.60
2018-10-18T06:04:41.940Z,88.70
2018-10-18T06:05:20.493Z,88.80
2018-10-18T06:05:59.476Z,88.60
2018-10-18T06:06:37.374Z,88.30
2018-10-18T06:07:15.585Z,87.80
2018-10-18T06:07:54.028Z,87.70
2018-10-18T06:08:31.920Z,87.60
2018-10-18T06:09:14.451Z,87.30
2018-10-18T06:09:52.404Z,87.10
2018-10-18T06:10:39.359Z,87.20
2018-10-18T06:11:28.540Z,87.10
2018-10-18T06:12:06.644Z,87.00
2018-10-18T06:12:44.436Z,87.10
2018-10-18T06:13:22.473Z,87.00
2018-10-18T06:14:00.442Z,87.10
2018-10-18T06:14:38.445Z,87.00
2018-10-18T06:15:16.411Z,87.10
2018-10-18T06:15:54.320Z,87.10
2018-10-18T06:16:32.300Z,87.20
2018-10-18T06:17:10.257Z,87.40
2018-10-18T06:17:48.192Z,86.90
2018-10-18T06:18:26.149Z,86.00
2018-10-18T06:19:04.111Z,85.50
2018-10-18T06:19:42.039Z,84.30
2018-10-18T06:20:20.502Z,83.20
2018-10-18T06:20:58.374Z,82.20
2018-10-18T06:21:36.278Z,82.20
2018-10-18T06:22:14.620Z,82.00
2018-10-18T06:22:52.615Z,82.40
2018-10-18T06:23:30.663Z,82.60
2018-10-18T06:24:08.472Z,82.60
2018-10-18T06:24:46.779Z,82.80
2018-10-18T06:25:24.943Z,83.20
2018-10-18T06:26:02.844Z,83.80
2018-10-18T06:26:41.063Z,83.20
2018-10-18T06:27:19.263Z,82.90
2018-10-18T06:27:57.603Z,83.00
2018-10-18T06:28:35.577Z,82.90
2018-10-18T06:29:13.714Z,82.90
2018-10-18T06:29:51.732Z,83.00
2018-10-18T06:30:29.611Z,83.30
2018-10-18T06:31:08.065Z,83.30
2018-10-18T06:31:47.176Z,83.10
2018-10-18T06:32:25.075Z,82.70
2018-10-18T06:33:03.257Z,82.40
2018-10-18T06:33:41.211Z,82.50
2018-10-18T06:34:19.221Z,82.00
2018-10-18T06:34:57.194Z,81.70
2018-10-18T06:35:35.088Z,81.10
2018-10-18T06:36:13.192Z,80.60
2018-10-18T06:36:51.210Z,80.50
2018-10-18T06:37:30.101Z,80.20
2018-10-18T06:38:08.170Z,80.00
2018-10-18T06:38:46.055Z,80.20
2018-10-18T06:39:24.129Z,79.80
2018-10-18T06:40:02.123Z,79.80
2018-10-18T06:40:40.126Z,79.80
2018-10-18T06:41:18.155Z,80.00
2018-10-18T06:41:56.147Z,80.00
2018-10-18T06:42:34.179Z,80.20
2018-10-18T06:43:12.154Z,80.30
2018-10-18T06:43:50.146Z,80.50
2018-10-18T06:44:28.277Z,80.60
2018-10-18T06:45:06.076Z,81.00
2018-10-18T06:45:44.261Z,81.20
2018-10-18T06:46:22.275Z,81.30
2018-10-18T06:47:00.445Z,81.00
2018-10-18T06:47:38.547Z,80.40
2018-10-18T06:48:17.462Z,80.10
2018-10-18T06:48:55.472Z,80.30
2018-10-18T06:49:33.603Z,80.00
2018-10-18T06:50:15.540Z,80.00
2018-10-18T06:50:54.699Z,80.00
2018-10-18T06:51:32.600Z,80.00
2018-10-18T06:52:10.530Z,80.30
2018-10-18T06:52:49.567Z,80.30
2018-10-18T06:53:27.730Z,80.30
2018-10-18T06:54:05.849Z,80.40
2018-10-18T06:54:43.822Z,80.30
2018-10-18T06:55:21.673Z,80.50
2018-10-18T06:55:59.649Z,80.20
2018-10-18T06:56:37.675Z,80.40
2018-10-18T06:57:15.659Z,80.60
2018-10-18T06:57:53.657Z,80.70
2018-10-18T06:58:31.744Z,80.80
2018-10-18T06:59:09.837Z,80.90
2018-10-18T06:59:47.859Z,81.00
2018-10-18T07:00:26.586Z,81.10
2018-10-18T07:01:04.932Z,81.20
2018-10-18T07:01:42.965Z,81.40
2018-10-18T07:02:20.899Z,81.40
2018-10-18T07:02:58.787Z,81.50
2018-10-18T07:03:36.908Z,81.60
2018-10-18T07:04:14.942Z,82.50
2018-10-18T07:04:52.903Z,81.80
2018-10-18T07:05:30.836Z,81.70
2018-10-18T07:06:09.042Z,81.30
2018-10-18T07:06:47.270Z,81.30
2018-10-18T07:07:25.183Z,80.80
2018-10-18T07:08:03.386Z,80.70
2018-10-18T07:08:41.271Z,80.70
2018-10-18T07:09:19.204Z,80.60
2018-10-18T07:09:57.115Z,80.50
2018-10-18T07:10:35.289Z,80.40
2018-10-18T07:11:13.299Z,80.40
2018-10-18T07:11:51.329Z,80.60
2018-10-18T07:12:29.228Z,80.40
2018-10-18T07:13:07.445Z,80.50
2018-10-18T07:13:45.340Z,80.50
2018-10-18T07:14:23.361Z,80.70
2018-10-18T07:15:01.335Z,80.90
2018-10-18T07:15:39.524Z,80.90
2018-10-18T07:16:17.510Z,81.00
2018-10-18T07:16:55.577Z,81.10
2018-10-18T07:17:33.571Z,81.10
2018-10-18T07:18:11.730Z,81.10
2018-10-18T07:18:49.851Z,81.20
2018-10-18T07:19:27.962Z,80.80
2018-10-18T07:20:06.115Z,80.60
2018-10-18T07:20:44.272Z,80.50
2018-10-18T07:21:22.209Z,80.30
2018-10-18T07:22:00.230Z,80.30
2018-10-18T07:22:38.547Z,80.30
2018-10-18T07:23:16.408Z,80.30
2018-10-18T07:23:54.244Z,80.20
2018-10-18T07:24:32.177Z,80.30
2018-10-18T07:25:13.098Z,80.20
2018-10-18T07:25:51.153Z,80.00
2018-10-18T07:26:29.064Z,80.00
2018-10-18T07:27:07.041Z,80.00
2018-10-18T07:27:45.286Z,80.00
2018-10-18T07:28:23.349Z,79.90
2018-10-18T07:29:01.319Z,79.90
2018-10-18T07:29:39.365Z,79.90
2018-10-18T07:30:18.239Z,79.90
2018-10-18T07:30:56.260Z,80.00
2018-10-18T07:31:34.228Z,80.00
2018-10-18T07:32:13.501Z,79.60
2018-10-18T07:32:51.637Z,79.80
2018-10-18T07:33:29.578Z,79.70
2018-10-18T07:34:07.596Z,80.60
2018-10-18T07:34:46.135Z,79.70
2018-10-18T07:35:24.109Z,79.60
2018-10-18T07:36:01.957Z,79.50
2018-10-18T07:36:40.081Z,79.30
2018-10-18T07:37:17.996Z,79.40
2018-10-18T07:37:55.884Z,79.30
2018-10-18T07:38:33.869Z,79.40
2018-10-18T07:39:15.498Z,79.50
2018-10-18T07:39:53.414Z,79.50
2018-10-18T07:40:31.390Z,79.50
2018-10-18T07:41:09.408Z,79.60
2018-10-18T07:41:47.429Z,79.60
2018-10-18T07:42:25.364Z,79.30
2018-10-18T07:43:03.164Z,79.30
2018-10-18T07:43:41.203Z,79.20
2018-10-18T07:44:19.065Z,79.20
2018-10-18T07:44:56.984Z,79.20
2018-10-18T07:45:34.875Z,79.20
2018-10-18T07:46:12.744Z,79.50
2018-10-18T07:46:50.861Z,79.40
2018-10-18T07:47:28.984Z,79.60
2018-10-18T07:48:07.215Z,79.60
2018-10-18T07:48:45.215Z,79.60
2018-10-18T07:49:23.182Z,79.60
2018-10-18T07:50:01.081Z,79.50
2018-10-18T07:50:38.934Z,79.50
2018-10-18T07:51:16.809Z,79.30
2018-10-18T07:51:55.027Z,79.30
2018-10-18T07:52:32.943Z,79.30
2018-10-18T07:53:11.272Z,79.30
2018-10-18T07:53:49.095Z,79.40
2018-10-18T07:54:27.449Z,79.50
2018-10-18T07:55:05.440Z,79.50
2018-10-18T07:55:43.364Z,80.00
2018-10-18T07:56:21.289Z,79.70
2018-10-18T07:56:59.343Z,79.60
2018-10-18T07:57:37.627Z,79.50
2018-10-18T07:58:15.704Z,79.20
2018-10-18T07:58:53.600Z,79.10
2018-10-18T07:59:31.516Z,78.90
2018-10-18T08:00:13.150Z,78.80
2018-10-18T08:00:51.134Z,78.80
2018-10-18T08:01:29.335Z,78.80
2018-10-18T08:02:08.053Z,78.80
2018-10-18T08:02:46.520Z,78.80
2018-10-18T08:03:24.563Z,78.80
2018-10-18T08:04:02.410Z,78.80
2018-10-18T08:04:40.253Z,78.90
2018-10-18T08:05:18.351Z,78.90
2018-10-18T08:05:56.382Z,78.90
2018-10-18T08:06:34.254Z,78.90
2018-10-18T08:07:12.330Z,79.00
2018-10-18T08:07:50.342Z,79.10
2018-10-18T08:08:28.170Z,79.10
2018-10-18T08:09:07.196Z,79.10
2018-10-18T08:09:45.218Z,79.10
2018-10-18T08:10:23.131Z,79.00
2018-10-18T08:11:01.073Z,79.10
2018-10-18T08:11:38.914Z,79.10
2018-10-18T08:12:16.765Z,79.10
2018-10-18T08:12:54.616Z,79.20
2018-10-18T08:13:32.789Z,79.40
2018-10-18T08:14:10.923Z,79.40
2018-10-18T08:14:49.010Z,79.40
2018-10-18T08:15:27.017Z,79.30
2018-10-18T08:16:05.040Z,79.10
2018-10-18T08:16:43.171Z,79.10
2018-10-18T08:17:21.219Z,79.10
2018-10-18T08:17:59.131Z,79.20
2018-10-18T08:18:37.118Z,79.20